Time,TemperatureF,DewpointF,PressureIn,WindDirection,WindDirectionDegrees,WindSpeedMPH,WindSpeedGustMPH,Humidity,HourlyPrecipIn,Conditions,Clouds,dailyrainin,SoftwareType,DateUTC
2013-03-04 00:00:00,22.4,15.1,30.69,North,352,0.0,0.0,73,0.00,,---,0.00,VWS V13.01,2013-03-04 05:00:00,
2013-03-04 00:30:00,21.7,15.0,30.71,North,354,0.0,0.0,75,0.00,,---,0.00,VWS V13.01,2013-03-04 05:30:00,
2013-03-04 01:00:00,20.9,14.5,30.62,North,354,0.0,0.0,76,0.00,,---,0.00,VWS V13.01,2013-03-04 06:00:00,
2013-03-04 01:30:00,20.1,14.1,30.62,North,354,0.0,0.0,77,0.00,,---,0.00,VWS V13.01,2013-03-04 06:30:00,
2013-03-04 02:00:00,19.5,13.5,30.66,North,354,0.0,0.0,77,0.00,,---,0.00,VWS V13.01,2013-03-04 07:00:00,
2013-03-04 02:30:00,18.7,13.0,30.61,North,354,0.0,0.0,78,0.00,,---,0.00,VWS V13.01,2013-03-04 07:30:00,
2013-03-04 03:00:00,17.8,12.4,30.65,North,355,0.0,0.0,79,0.00,,---,0.00,VWS V13.01,2013-03-04 08:00:00,
2013-03-04 03:30:00,17.2,11.5,30.62,North,355,0.0,0.0,78,0.00,,---,0.00,VWS V13.01,2013-03-04 08:30:00,
2013-03-04 04:00:00,17.0,11.9,30.66,North,355,0.0,0.0,80,0.00,,---,0.00,VWS V13.01,2013-03-04 09:00:00,
2013-03-04 04:30:00,16.6,11.5,30.69,North,355,0.0,0.0,80,0.00,,---,0.00,VWS V13.01,2013-03-04 09:30:00,
2013-03-04 05:00:00,16.5,11.4,30.69,North,354,0.0,0.0,80,0.00,,---,0.00,VWS V13.01,2013-03-04 10:00:00,
2013-03-04 05:30:00,16.0,10.6,30.63,North,355,0.0,0.0,79,0.00,,---,0.00,VWS V13.01,2013-03-04 10:30:00,
2013-03-04 06:00:00,15.6,10.5,30.69,North,355,0.0,0.0,80,0.00,,---,0.00,VWS V13.01,2013-03-04 11:00:00,
2013-03-04 06:30:00,15.6,10.5,30.69,North,355,0.0,0.0,80,0.00,,---,0.00,VWS V13.01,2013-03-04 11:30:00,
2013-03-04 07:00:00,15.2,9.9,30.64,North,355,0.0,0.0,79,0.00,,---,0.00,VWS V13.01,2013-03-04 12:00:00,
2013-03-04 07:30:00,16.1,11.0,30.64,North,355,0.0,0.0,80,0.00,,---,0.00,VWS V13.01,2013-03-04 12:30:00,
2013-03-04 08:00:00,17.2,11.8,30.75,North,354,0.0,0.0,79,0.00,,---,0.00,VWS V13.01,2013-03-04 13:00:00,
2013-03-04 08:30:00,20.5,14.7,30.71,NNW,346,0.0,0.0,78,0.00,,---,0.00,VWS V13.01,2013-03-04 13:30:00,
2013-03-04 09:00:00,23.5,16.8,30.71,NNE,27,0.0,0.0,75,0.00,,---,0.00,VWS V13.01,2013-03-04 14:00:00,
2013-03-04 09:30:00,28.3,18.8,30.73,NE,56,0.0,0.0,67,0.00,,---,0.00,VWS V13.01,2013-03-04 14:30:00,
2013-03-04 10:00:00,31.9,20.0,30.67,NNE,28,0.0,0.0,61,0.00,,---,0.00,VWS V13.01,2013-03-04 15:00:00,
2013-03-04 10:30:00,34.1,19.6,30.73,NE,35,0.0,0.0,55,0.00,,---,0.00,VWS V13.01,2013-03-04 15:30:00,
2013-03-04 11:00:00,36.3,21.3,30.71,NNE,14,0.0,0.0,54,0.00,,---,0.00,VWS V13.01,2013-03-04 16:00:00,
2013-03-04 11:30:00,36.9,20.9,30.69,East,95,0.0,0.0,52,0.00,,---,0.00,VWS V13.01,2013-03-04 16:30:00,
2013-03-04 12:00:00,38.1,21.6,30.70,SSE,155,0.0,0.0,51,0.00,,---,0.00,VWS V13.01,2013-03-04 17:00:00,
2013-03-04 12:30:00,37.7,21.7,30.75,SSW,194,0.0,0.0,52,0.00,,---,0.00,VWS V13.01,2013-03-04 17:30:00,
2013-03-04 13:00:00,40.6,23.0,30.65,ESE,105,0.0,0.0,49,0.00,,---,0.00,VWS V13.01,2013-03-04 18:00:00,
2013-03-04 13:30:00,41.4,23.2,30.71,NNE,25,0.0,0.0,48,0.00,,---,0.00,VWS V13.01,2013-03-04 18:30:00,
2013-03-04 14:00:00,41.1,21.4,30.72,ESE,114,0.0,0.0,45,0.00,,---,0.00,VWS V13.01,2013-03-04 19:00:00,
2013-03-04 14:30:00,40.9,19.6,30.70,North,1,0.0,0.0,42,0.00,,---,0.00,VWS V13.01,2013-03-04 19:30:00,
2013-03-04 15:00:00,45.1,22.2,30.63,NE,37,0.0,0.0,40,0.00,,---,0.00,VWS V13.01,2013-03-04 20:00:00,
2013-03-04 15:30:00,45.5,22.6,30.62,ENE,59,0.0,0.0,40,0.00,,---,0.00,VWS V13.01,2013-03-04 20:30:00,
2013-03-04 16:00:00,46.4,24.6,30.66,ENE,60,0.0,0.0,42,0.00,,---,0.00,VWS V13.01,2013-03-04 21:00:00,
2013-03-04 16:30:00,43.5,24.1,30.65,NE,45,0.0,0.0,46,0.00,,---,0.00,VWS V13.01,2013-03-04 21:30:00,
2013-03-04 17:00:00,43.1,23.7,30.61,NE,49,0.0,0.0,46,0.00,,---,0.00,VWS V13.01,2013-03-04 22:00:00,
2013-03-04 17:30:00,37.6,20.7,30.61,NE,52,0.0,0.0,50,0.00,,---,0.00,VWS V13.01,2013-03-04 22:30:00,
2013-03-04 18:00:00,35.9,20.5,30.58,NNE,33,0.0,0.0,53,0.00,,---,0.00,VWS V13.01,2013-03-04 23:00:00,
2013-03-04 18:30:00,33.3,20.1,30.59,NE,47,0.0,0.0,58,0.00,,---,0.00,VWS V13.01,2013-03-04 23:30:00,
2013-03-04 19:00:00,32.2,20.3,30.58,NE,52,0.0,0.0,61,0.00,,---,0.00,VWS V13.01,2013-03-05 00:00:00,
2013-03-04 19:30:00,31.3,19.0,30.59,NE,47,0.0,0.0,60,0.00,,---,0.00,VWS V13.01,2013-03-05 00:30:00,
2013-03-04 20:00:00,30.6,18.8,30.66,NE,54,0.0,0.0,61,0.00,,---,0.00,VWS V13.01,2013-03-05 01:00:00,
2013-03-04 20:30:00,30.1,17.9,30.65,NE,49,0.0,0.0,60,0.00,,---,0.00,VWS V13.01,2013-03-05 01:30:00,
2013-03-04 21:00:00,29.4,17.2,30.62,NE,52,0.0,0.0,60,0.00,,---,0.00,VWS V13.01,2013-03-05 02:00:00,
2013-03-04 21:30:00,28.7,17.7,30.68,NE,50,0.0,0.0,63,0.00,,---,0.00,VWS V13.01,2013-03-05 02:30:00,
2013-03-04 22:00:00,28.3,17.7,30.66,NE,49,0.0,0.0,64,0.00,,---,0.00,VWS V13.01,2013-03-05 03:00:00,
2013-03-04 22:30:00,27.9,17.3,30.64,NE,54,0.0,0.0,64,0.00,,---,0.00,VWS V13.01,2013-03-05 03:30:00,
2013-03-04 23:00:00,27.3,17.1,30.62,NE,43,0.0,0.0,65,0.00,,---,0.00,VWS V13.01,2013-03-05 04:00:00,
2013-03-04 23:30:00,26.8,16.6,30.62,NE,43,0.0,0.0,65,0.00,,---,0.00,VWS V13.01,2013-03-05 04:30:00,